Time;durP1;ratioP1;P1;durP2;ratioP2;P2;SDS_P1;SDS_P2;PMS_P1;PMS_P2;Temp;Humidity;BMP_temperature;BMP_pressure;BME280_temperature;BME280_humidity;BME280_pressure;Samples;Min_cycle;Max_cycle;Signal;HPM_P1;HPM_P2
2023/07/06 00:00:16;;;;;;;;;;;;;;;21.00;74.43;100911.39;107608;1254;97687;-63
2023/07/06 00:03:05;;;;;;;;;;;;;;;20.95;75.04;100909.35;107659;1254;97713;-60
2023/07/06 00:05:34;;;;;;;;;;;;;;;20.91;75.18;100910.63;107614;1254;111728;-61
2023/07/06 00:08:03;;;;;;;;;;;;;;;20.84;76.05;100916.02;107686;1254;109541;-62
2023/07/06 00:10:31;;;;;;;;;;;;;;;20.76;76.50;100914.48;107644;1256;107110;-61
2023/07/06 00:13:01;;;;;;;;;;;;;;;20.69;77.02;100911.59;107585;1251;97837;-62
2023/07/06 00:15:31;;;;;;;;;;;;;;;20.59;78.02;100907.16;107552;1251;97803;-62
2023/07/06 00:18:02;;;;;;;;;;;;;;;20.53;77.99;100904.30;107595;1253;112324;-60
2023/07/06 00:20:32;;;;;;;;;;;;;;;20.51;77.90;100910.26;107651;1254;109292;-61
2023/07/06 00:23:00;;;;;;;;;;;;;;;20.47;79.39;100912.95;107607;1256;107265;-62
2023/07/06 00:25:30;;;;;;;;;;;;;;;20.45;78.71;100917.42;107641;1254;97849;-62
2023/07/06 00:27:58;;;;;;;;;;;;;;;20.44;79.66;100921.38;107640;1253;97810;-60
2023/07/06 00:33:15;;;;;;;;;;;;;;;20.44;79.48;100909.95;107591;1253;110940;-60
2023/07/06 00:35:44;;;;;;;;;;;;;;;20.43;79.59;100913.81;107614;1251;108484;-61
2023/07/06 00:38:21;;;;;;;;;;;;;;;20.44;78.95;100906.28;107583;1251;97846;-62
2023/07/06 00:40:51;;;;;;;;;;;;;;;20.47;79.88;100902.61;107585;1251;97696;-63
2023/07/06 00:43:23;;;;;;;;;;;;;;;20.46;79.28;100902.35;107566;1251;111001;-62
2023/07/06 00:46:12;;;;;;;;;;;;;;;20.45;79.30;100902.22;107545;1251;109519;-62
2023/07/06 00:48:44;;;;;;;;;;;;;;;20.42;79.04;100903.16;107487;1256;107667;-61
2023/07/06 00:51:37;;;;;;;;;;;;;;;20.40;79.37;100903.34;107500;1251;97963;-63
2023/07/06 00:54:12;;;;;;;;;;;;;;;20.38;79.84;100899.20;107513;1253;97963;-61
2023/07/06 00:56:42;;;;;;;;;;;;;;;20.37;79.61;100891.77;107628;1252;111989;-62
2023/07/06 00:59:13;;;;;;;;;;;;;;;20.40;79.73;100888.23;107606;1251;108777;-62
2023/07/06 01:01:45;;;;;;;;;;;;;;;20.39;80.07;100885.99;107569;1251;107624;-61
2023/07/06 01:04:15;;;;;;;;;;;;;;;20.33;80.95;100886.37;107542;1256;97821;-61
2023/07/06 01:06:47;;;;;;;;;;;;;;;20.29;80.02;100886.42;107601;1251;97691;-62
2023/07/06 01:09:17;;;;;;;;;;;;;;;20.30;79.87;100885.77;107639;1251;111741;-60
2023/07/06 01:11:46;;;;;;;;;;;;;;;20.26;80.81;100884.09;107647;1251;109507;-61
2023/07/06 01:14:14;;;;;;;;;;;;;;;20.23;80.50;100886.70;107620;1254;108363;-61
2023/07/06 01:16:43;;;;;;;;;;;;;;;20.21;80.67;100897.19;107605;1254;97817;-61
2023/07/06 01:19:40;;;;;;;;;;;;;;;20.19;80.15;100899.95;107610;1256;97688;-61
2023/07/06 01:22:12;;;;;;;;;;;;;;;20.18;80.65;100904.19;107473;1254;111842;-60
2023/07/06 01:24:59;;;;;;;;;;;;;;;20.15;80.48;100899.70;107626;1256;109069;-61
2023/07/06 01:27:31;;;;;;;;;;;;;;;20.12;80.55;100902.59;107515;1256;107846;-61
2023/07/06 01:30:24;;;;;;;;;;;;;;;20.09;81.22;100899.83;107623;1254;97834;-62
2023/07/06 01:32:56;;;;;;;;;;;;;;;20.04;81.08;100895.58;107737;1255;97905;-61
2023/07/06 01:35:27;;;;;;;;;;;;;;;20.00;81.02;100892.27;107626;1251;111524;-59
2023/07/06 01:37:55;;;;;;;;;;;;;;;19.99;81.06;100896.08;107618;1251;109108;-60
2023/07/06 01:40:24;;;;;;;;;;;;;;;19.98;81.82;100897.15;107597;1254;107885;-62
2023/07/06 01:42:52;;;;;;;;;;;;;;;19.94;81.92;100890.20;107539;1254;97822;-61
2023/07/06 01:45:23;;;;;;;;;;;;;;;19.94;82.04;100890.23;107557;1254;97826;-62
2023/07/06 01:47:55;;;;;;;;;;;;;;;19.90;81.54;100891.95;107654;1251;112065;-60
2023/07/06 01:50:33;;;;;;;;;;;;;;;19.85;82.01;100890.55;107619;1251;108252;-62
2023/07/06 01:53:07;;;;;;;;;;;;;;;19.85;81.35;100889.33;107550;1251;107539;-60
2023/07/06 01:56:01;;;;;;;;;;;;;;;19.85;81.94;100887.15;107585;1251;97812;-62
2023/07/06 01:58:48;;;;;;;;;;;;;;;19.85;81.76;100885.45;107507;1251;97813;-61
2023/07/06 02:01:19;;;;;;;;;;;;;;;19.88;81.84;100883.66;107631;1251;112109;-61
2023/07/06 02:03:53;;;;;;;;;;;;;;;19.90;81.56;100883.92;107590;1256;108601;-61
2023/07/06 02:06:22;;;;;;;;;;;;;;;19.91;81.88;100889.99;107632;1254;108210;-61
2023/07/06 02:08:51;;;;;;;;;;;;;;;19.92;81.28;100887.23;107600;1254;97685;-60
2023/07/06 02:11:20;;;;;;;;;;;;;;;19.91;81.18;100886.72;107608;1252;97716;-60
2023/07/06 02:13:51;;;;;;;;;;;;;;;19.92;80.76;100889.50;107581;1254;111115;-61
2023/07/06 02:16:19;;;;;;;;;;;;;;;19.95;80.49;100890.75;107628;1254;109950;-61
2023/07/06 02:18:47;;;;;;;;;;;;;;;19.99;80.46;100892.39;107623;1254;106830;-60
2023/07/06 02:21:16;;;;;;;;;;;;;;;20.05;80.14;100888.11;107609;1253;97835;-61
2023/07/06 02:23:45;;;;;;;;;;;;;;;20.09;79.82;100885.27;107648;1253;98303;-60
2023/07/06 02:26:13;;;;;;;;;;;;;;;20.11;79.64;100882.61;107649;1254;111159;-60
2023/07/06 02:28:42;;;;;;;;;;;;;;;20.11;80.02;100885.01;107627;1254;108369;-61
2023/07/06 02:31:10;;;;;;;;;;;;;;;20.08;79.52;100884.94;107609;1254;107231;-61
2023/07/06 02:33:38;;;;;;;;;;;;;;;20.09;79.28;100885.27;107639;1254;97800;-61
2023/07/06 02:36:06;;;;;;;;;;;;;;;20.10;79.07;100881.39;107671;1251;97832;-61
2023/07/06 02:38:36;;;;;;;;;;;;;;;20.14;79.91;100882.77;107525;1255;111711;-60
2023/07/06 02:41:04;;;;;;;;;;;;;;;20.14;80.12;100880.23;107573;1251;109734;-60
2023/07/06 02:43:32;;;;;;;;;;;;;;;20.12;79.97;100880.52;107495;1254;107490;-62
2023/07/06 02:46:02;;;;;;;;;;;;;;;20.07;80.18;100876.70;107590;1254;98303;-61
2023/07/06 02:48:31;;;;;;;;;;;;;;;20.04;79.47;100875.17;107598;1253;97720;-60
2023/07/06 02:50:59;;;;;;;;;;;;;;;20.03;79.85;100874.17;107675;1254;111483;-60
2023/07/06 02:53:27;;;;;;;;;;;;;;;20.02;79.74;100877.75;107583;1256;108995;-60
2023/07/06 02:55:55;;;;;;;;;;;;;;;20.01;79.99;100878.73;107563;1251;108567;-61
2023/07/06 02:58:24;;;;;;;;;;;;;;;20.02;79.88;100877.58;107601;1256;97821;-60
2023/07/06 03:00:52;;;;;;;;;;;;;;;20.03;79.96;100875.41;107563;1251;97890;-60
2023/07/06 03:03:20;;;;;;;;;;;;;;;20.04;79.86;100875.16;107571;1251;111906;-60
2023/07/06 03:05:49;;;;;;;;;;;;;;;20.04;80.01;100880.08;107569;1251;109681;-62
2023/07/06 03:08:17;;;;;;;;;;;;;;;20.05;79.96;100882.09;107510;1254;107431;-61
2023/07/06 03:10:46;;;;;;;;;;;;;;;20.07;80.32;100880.05;107618;1257;97831;-63
2023/07/06 03:13:15;;;;;;;;;;;;;;;20.06;80.72;100884.12;107612;1257;97837;-60
2023/07/06 03:15:49;;;;;;;;;;;;;;;20.04;80.53;100885.11;107589;1251;111441;-63
2023/07/06 03:18:18;;;;;;;;;;;;;;;19.99;80.62;100881.38;107619;1251;110254;-61
2023/07/06 03:20:48;;;;;;;;;;;;;;;19.96;80.68;100879.62;107548;1251;106142;-62
2023/07/06 03:23:18;;;;;;;;;;;;;;;19.98;80.45;100876.77;107527;1251;97919;-61
2023/07/06 03:25:49;;;;;;;;;;;;;;;20.01;80.47;100876.90;107545;1257;98314;-62
2023/07/06 03:28:18;;;;;;;;;;;;;;;20.04;80.47;100876.08;107584;1250;111344;-63
2023/07/06 03:30:53;;;;;;;;;;;;;;;20.06;80.94;100875.35;107620;1252;109577;-61
2023/07/06 03:33:21;;;;;;;;;;;;;;;20.08;80.86;100879.42;107558;1252;108029;-64
2023/07/06 03:35:59;;;;;;;;;;;;;;;20.07;80.38;100887.29;107519;1251;97819;-61
2023/07/06 03:38:29;;;;;;;;;;;;;;;20.04;79.99;100890.65;107596;1251;97701;-61
2023/07/06 03:40:58;;;;;;;;;;;;;;;20.06;79.93;100888.70;107522;1256;112102;-61
2023/07/06 03:43:26;;;;;;;;;;;;;;;20.11;79.90;100887.54;107577;1251;109956;-61
2023/07/06 03:45:55;;;;;;;;;;;;;;;20.16;79.75;100885.80;107583;1257;108301;-63
2023/07/06 03:48:23;;;;;;;;;;;;;;;20.21;79.33;100882.20;107595;1256;97802;-60
2023/07/06 03:50:52;;;;;;;;;;;;;;;20.29;79.53;100880.49;107559;1251;97847;-61
2023/07/06 03:53:21;;;;;;;;;;;;;;;20.37;79.47;100879.16;107484;1254;112050;-61
2023/07/06 03:55:52;;;;;;;;;;;;;;;20.40;79.30;100877.59;107655;1254;109224;-61
2023/07/06 03:58:21;;;;;;;;;;;;;;;20.45;78.78;100874.02;107637;1256;107209;-61
2023/07/06 04:00:49;;;;;;;;;;;;;;;20.51;78.87;100869.98;107619;1256;97912;-61
2023/07/06 04:03:18;;;;;;;;;;;;;;;20.55;79.02;100871.89;107659;1254;98184;-60
2023/07/06 04:05:48;;;;;;;;;;;;;;;20.54;78.65;100873.02;107684;1255;112209;-61
2023/07/06 04:08:19;;;;;;;;;;;;;;;20.55;78.43;100873.91;107666;1251;109191;-61
2023/07/06 04:10:48;;;;;;;;;;;;;;;20.54;78.49;100870.47;107519;1251;108448;-62
2023/07/06 04:13:17;;;;;;;;;;;;;;;20.56;78.48;100870.39;107510;1252;97748;-61
2023/07/06 04:15:46;;;;;;;;;;;;;;;20.58;78.80;100874.73;107552;1251;97816;-62
2023/07/06 04:18:15;;;;;;;;;;;;;;;20.56;78.42;100872.58;107513;1253;111560;-61
2023/07/06 04:20:44;;;;;;;;;;;;;;;20.57;78.23;100870.67;107600;1254;110094;-62
2023/07/06 04:23:13;;;;;;;;;;;;;;;20.60;78.29;100870.63;107593;1254;107680;-62
2023/07/06 04:25:41;;;;;;;;;;;;;;;20.63;78.62;100866.98;107488;1254;97932;-62
2023/07/06 04:28:12;;;;;;;;;;;;;;;20.61;79.18;100866.72;107498;1251;97816;-62
2023/07/06 04:30:42;;;;;;;;;;;;;;;20.62;78.88;100867.35;107606;1255;112578;-63
2023/07/06 04:33:14;;;;;;;;;;;;;;;20.64;79.19;100868.00;107598;1256;110084;-62
2023/07/06 04:35:43;;;;;;;;;;;;;;;20.68;79.21;100866.01;107561;1251;108635;-61
2023/07/06 04:38:11;;;;;;;;;;;;;;;20.67;79.43;100866.84;107520;1254;97925;-62
2023/07/06 04:40:41;;;;;;;;;;;;;;;20.69;79.10;100868.83;107522;1254;97832;-62
2023/07/06 04:43:10;;;;;;;;;;;;;;;20.71;78.85;100872.63;107527;1251;111356;-65
2023/07/06 04:45:39;;;;;;;;;;;;;;;20.72;78.99;100872.05;107663;1254;110255;-61
2023/07/06 04:48:07;;;;;;;;;;;;;;;20.71;79.36;100875.11;107597;1251;108960;-63
2023/07/06 04:50:37;;;;;;;;;;;;;;;20.72;79.14;100882.66;107550;1254;97688;-63
2023/07/06 04:53:07;;;;;;;;;;;;;;;20.81;78.98;100888.20;107668;1254;97932;-63
2023/07/06 04:55:36;;;;;;;;;;;;;;;20.92;78.56;100890.63;107673;1254;112079;-61
2023/07/06 04:58:05;;;;;;;;;;;;;;;21.00;78.20;100893.95;107666;1251;109527;-63
2023/07/06 05:00:37;;;;;;;;;;;;;;;21.06;77.97;100896.91;107609;1254;108637;-63
2023/07/06 05:03:07;;;;;;;;;;;;;;;21.17;77.87;100892.75;107596;1254;97936;-63
2023/07/06 05:05:40;;;;;;;;;;;;;;;21.28;77.89;100889.14;107673;1254;97847;-61
2023/07/06 05:08:11;;;;;;;;;;;;;;;21.41;77.60;100881.48;107601;1254;111328;-62
2023/07/06 05:10:39;;;;;;;;;;;;;;;21.51;77.36;100881.68;107617;1254;108650;-62
2023/07/06 05:13:07;;;;;;;;;;;;;;;21.62;77.11;100883.21;107642;1256;107850;-63
2023/07/06 05:15:36;;;;;;;;;;;;;;;21.69;76.65;100880.95;107640;1254;97948;-62
2023/07/06 05:18:06;;;;;;;;;;;;;;;21.74;76.68;100877.46;107643;1254;97919;-63
2023/07/06 05:20:35;;;;;;;;;;;;;;;21.77;76.32;100872.30;107627;1254;110301;-61
2023/07/06 05:23:05;;;;;;;;;;;;;;;21.78;76.65;100870.45;107654;1254;109126;-64
2023/07/06 05:25:35;;;;;;;;;;;;;;;21.73;77.00;100871.27;107461;1257;109142;-63
2023/07/06 05:28:03;;;;;;;;;;;;;;;21.71;76.68;100875.23;107588;1254;97807;-62
2023/07/06 05:30:31;;;;;;;;;;;;;;;21.76;76.75;100877.30;107545;1254;98025;-63
2023/07/06 05:33:02;;;;;;;;;;;;;;;21.78;77.12;100877.98;107467;1254;112380;-62
2023/07/06 05:35:32;;;;;;;;;;;;;;;21.81;77.23;100877.73;107563;1254;109698;-61
2023/07/06 05:38:01;;;;;;;;;;;;;;;21.85;77.65;100879.71;107555;1256;107981;-61
2023/07/06 05:40:29;;;;;;;;;;;;;;;21.89;77.59;100875.77;107598;1254;97935;-61
2023/07/06 05:42:57;;;;;;;;;;;;;;;21.95;77.07;100872.14;107657;1254;97707;-61
2023/07/06 05:45:26;;;;;;;;;;;;;;;22.03;77.29;100875.86;107590;1254;111874;-62
2023/07/06 05:47:54;;;;;;;;;;;;;;;22.12;76.92;100872.88;107540;1254;109303;-61
2023/07/06 05:50:23;;;;;;;;;;;;;;;22.17;76.41;100872.16;107570;1251;108965;-61
2023/07/06 05:52:52;;;;;;;;;;;;;;;22.23;76.42;100870.21;107531;1251;97809;-60
2023/07/06 05:55:21;;;;;;;;;;;;;;;22.34;76.20;100868.91;107618;1254;97975;-62
2023/07/06 05:57:50;;;;;;;;;;;;;;;22.41;75.83;100865.21;107702;1254;112223;-62
2023/07/06 06:00:18;;;;;;;;;;;;;;;22.50;75.73;100865.66;107564;1251;109942;-60
2023/07/06 06:02:47;;;;;;;;;;;;;;;22.58;75.74;100865.85;107574;1251;108521;-65
2023/07/06 06:05:15;;;;;;;;;;;;;;;22.62;75.31;100865.09;107517;1251;97813;-62
2023/07/06 06:07:46;;;;;;;;;;;;;;;22.66;75.26;100863.65;107599;1251;97720;-61
2023/07/06 06:10:14;;;;;;;;;;;;;;;22.69;75.22;100861.75;107567;1254;112105;-62
2023/07/06 06:12:44;;;;;;;;;;;;;;;22.77;75.07;100860.67;107565;1250;109681;-62
2023/07/06 06:15:14;;;;;;;;;;;;;;;22.84;74.89;100861.33;107567;1251;108177;-60
2023/07/06 06:17:44;;;;;;;;;;;;;;;22.91;74.65;100859.63;107481;1251;97930;-61
2023/07/06 06:20:13;;;;;;;;;;;;;;;23.00;74.37;100862.24;107542;1251;97716;-64
2023/07/06 06:22:41;;;;;;;;;;;;;;;23.07;73.83;100863.95;107578;1251;111803;-63
2023/07/06 06:25:09;;;;;;;;;;;;;;;23.11;73.66;100860.52;107546;1254;109141;-63
2023/07/06 06:27:43;;;;;;;;;;;;;;;23.16;73.53;100859.18;107617;1256;108554;-64
2023/07/06 06:30:28;;;;;;;;;;;;;;;23.19;73.31;100857.80;107587;1254;97714;-66
2023/07/06 06:32:57;;;;;;;;;;;;;;;23.21;73.60;100857.13;107525;1254;97714;-62
2023/07/06 06:35:31;;;;;;;;;;;;;;;23.26;73.63;100855.45;107490;1251;111341;-62
2023/07/06 06:38:05;;;;;;;;;;;;;;;23.34;73.54;100859.67;107574;1253;110396;-62
2023/07/06 06:40:36;;;;;;;;;;;;;;;23.41;73.58;100854.27;107543;1251;108651;-61
2023/07/06 06:43:04;;;;;;;;;;;;;;;23.44;73.21;100852.31;107552;1254;97822;-62
2023/07/06 06:45:32;;;;;;;;;;;;;;;23.49;73.13;100853.77;107600;1251;97943;-62
2023/07/06 06:48:02;;;;;;;;;;;;;;;23.51;72.94;100851.02;107593;1254;111522;-63
2023/07/06 06:50:30;;;;;;;;;;;;;;;23.56;73.03;100850.98;107493;1251;109765;-62
2023/07/06 06:52:58;;;;;;;;;;;;;;;23.62;73.08;100848.44;107461;1251;108587;-61
2023/07/06 06:55:26;;;;;;;;;;;;;;;23.70;73.40;100845.23;107589;1251;97818;-62
2023/07/06 06:57:55;;;;;;;;;;;;;;;23.79;73.33;100847.57;107654;1254;97806;-62
2023/07/06 07:00:23;;;;;;;;;;;;;;;23.89;73.20;100843.35;107617;1251;112069;-61
2023/07/06 07:02:51;;;;;;;;;;;;;;;23.99;73.26;100838.27;107585;1253;109822;-61
2023/07/06 07:05:20;;;;;;;;;;;;;;;24.09;73.27;100839.09;107561;1251;107491;-60
2023/07/06 07:07:49;;;;;;;;;;;;;;;24.18;73.17;100834.27;107486;1254;97662;-63
2023/07/06 07:10:18;;;;;;;;;;;;;;;24.28;72.60;100836.79;107550;1251;97827;-61
2023/07/06 07:12:47;;;;;;;;;;;;;;;24.39;72.51;100837.07;107484;1251;110930;-63
2023/07/06 07:15:15;;;;;;;;;;;;;;;24.50;71.80;100837.34;107525;1251;109823;-62
2023/07/06 07:17:44;;;;;;;;;;;;;;;24.58;71.16;100837.50;107620;1251;108199;-60
2023/07/06 07:20:16;;;;;;;;;;;;;;;24.66;70.54;100835.86;107640;1251;97871;-61
2023/07/06 07:22:46;;;;;;;;;;;;;;;24.72;70.11;100838.45;107603;1251;97722;-60
2023/07/06 07:25:17;;;;;;;;;;;;;;;24.81;70.45;100829.66;107614;1254;111740;-60
2023/07/06 07:27:46;;;;;;;;;;;;;;;24.91;70.22;100828.38;107646;1251;109978;-64
2023/07/06 07:30:15;;;;;;;;;;;;;;;25.01;70.03;100827.44;107661;1251;107885;-62
2023/07/06 07:32:47;;;;;;;;;;;;;;;25.10;69.34;100824.57;107633;1254;97808;-63
2023/07/06 07:35:16;;;;;;;;;;;;;;;25.19;69.34;100822.13;107674;1254;97698;-61
2023/07/06 07:37:50;;;;;;;;;;;;;;;25.29;68.97;100823.55;107553;1251;112332;-62
2023/07/06 07:40:19;;;;;;;;;;;;;;;25.39;68.41;100817.32;107576;1254;108895;-63
2023/07/06 07:42:48;;;;;;;;;;;;;;;25.51;67.82;100814.80;107660;1251;108278;-64
2023/07/06 07:45:18;;;;;;;;;;;;;;;25.62;67.72;100812.89;107502;1254;97925;-63
2023/07/06 07:47:47;;;;;;;;;;;;;;;25.73;67.70;100815.05;107622;1254;97822;-63
2023/07/06 07:50:17;;;;;;;;;;;;;;;25.84;67.30;100816.36;107594;1251;111050;-64
2023/07/06 07:52:45;;;;;;;;;;;;;;;25.90;66.84;100817.48;107555;1253;109784;-62
2023/07/06 07:55:14;;;;;;;;;;;;;;;25.97;66.97;100812.27;107560;1253;107860;-62
2023/07/06 07:57:43;;;;;;;;;;;;;;;26.07;66.71;100809.45;107563;1254;97841;-61
2023/07/06 08:00:11;;;;;;;;;;;;;;;26.20;66.87;100808.87;107529;1254;97861;-63
2023/07/06 08:02:42;;;;;;;;;;;;;;;26.33;66.59;100806.20;106741;1257;959550;-62
2023/07/06 08:05:10;;;;;;;;;;;;;;;26.44;66.01;100804.02;107552;1254;109456;-62
2023/07/06 08:07:38;;;;;;;;;;;;;;;26.55;65.55;100805.23;107551;1254;107328;-61
2023/07/06 08:10:08;;;;;;;;;;;;;;;26.67;65.26;100806.23;107570;1253;97917;-62
2023/07/06 08:12:36;;;;;;;;;;;;;;;26.79;64.20;100801.27;107581;1254;97806;-63
2023/07/06 08:15:05;;;;;;;;;;;;;;;26.88;62.42;100802.00;107640;1253;111646;-62
2023/07/06 08:17:33;;;;;;;;;;;;;;;27.00;63.14;100799.68;107655;1251;109055;-63
2023/07/06 08:20:10;;;;;;;;;;;;;;;27.07;61.74;100798.45;107593;1256;108216;-61
2023/07/06 08:23:02;;;;;;;;;;;;;;;27.14;61.42;100795.88;107549;1252;99248;-63
2023/07/06 08:25:37;;;;;;;;;;;;;;;27.25;61.74;100794.77;107574;1251;97824;-66
2023/07/06 08:28:09;;;;;;;;;;;;;;;27.39;61.75;100790.70;107625;1252;111245;-63
2023/07/06 08:30:40;;;;;;;;;;;;;;;27.54;60.84;100791.89;107669;1254;109389;-62
2023/07/06 08:33:09;;;;;;;;;;;;;;;27.72;60.14;100792.23;107631;1256;108790;-63
2023/07/06 08:35:41;;;;;;;;;;;;;;;27.87;59.68;100791.44;107620;1251;98015;-62
2023/07/06 08:38:11;;;;;;;;;;;;;;;28.05;58.61;100791.41;107628;1251;97828;-62
2023/07/06 08:40:40;;;;;;;;;;;;;;;28.18;59.05;100788.29;107628;1256;111430;-62
2023/07/06 08:43:36;;;;;;;;;;;;;;;28.27;58.41;100789.88;107621;1254;108955;-66
2023/07/06 08:46:11;;;;;;;;;;;;;;;28.38;58.03;100789.95;107585;1251;107796;-62
2023/07/06 08:48:39;;;;;;;;;;;;;;;28.46;57.51;100784.54;107613;1254;97797;-65
2023/07/06 08:51:22;;;;;;;;;;;;;;;28.55;57.17;100787.14;107577;1254;97906;-63
2023/07/06 08:54:11;;;;;;;;;;;;;;;28.63;55.67;100785.98;107543;1251;111901;-64
2023/07/06 08:56:39;;;;;;;;;;;;;;;28.72;56.23;100789.48;107581;1251;108340;-63
2023/07/06 08:59:13;;;;;;;;;;;;;;;28.88;55.90;100780.89;107522;1251;108120;-63
2023/07/06 09:01:42;;;;;;;;;;;;;;;29.07;56.09;100782.20;107637;1253;97854;-62
2023/07/06 09:04:16;;;;;;;;;;;;;;;29.25;55.15;100784.39;107566;1254;97825;-64
2023/07/06 09:06:47;;;;;;;;;;;;;;;29.46;53.69;100786.95;107682;1251;111855;-62
2023/07/06 09:09:16;;;;;;;;;;;;;;;29.65;52.47;100784.84;107580;1254;109438;-62
2023/07/06 09:11:46;;;;;;;;;;;;;;;29.84;51.33;100783.48;107533;1254;108012;-61
2023/07/06 09:14:16;;;;;;;;;;;;;;;30.02;51.46;100782.11;107504;1251;97812;-62
2023/07/06 09:16:48;;;;;;;;;;;;;;;30.17;50.57;100787.42;107627;1251;97876;-61
2023/07/06 09:19:17;;;;;;;;;;;;;;;30.25;49.82;100784.76;107476;1253;113140;-67
2023/07/06 09:21:50;;;;;;;;;;;;;;;30.43;50.55;100781.53;107612;1251;108818;-66
2023/07/06 09:24:19;;;;;;;;;;;;;;;30.65;49.98;100778.16;107630;1253;108338;-61
2023/07/06 09:26:47;;;;;;;;;;;;;;;30.93;49.14;100774.98;107631;1254;97933;-62
2023/07/06 09:29:18;;;;;;;;;;;;;;;31.20;48.33;100774.40;107677;1252;97813;-60
2023/07/06 09:31:47;;;;;;;;;;;;;;;31.48;46.96;100771.66;107535;1251;111294;-62
2023/07/06 09:34:31;;;;;;;;;;;;;;;31.74;46.55;100767.39;107576;1251;109306;-61
2023/07/06 09:37:00;;;;;;;;;;;;;;;32.03;45.43;100772.10;107539;1252;108296;-63
2023/07/06 09:39:28;;;;;;;;;;;;;;;32.26;45.94;100776.23;107651;1253;97849;-63
2023/07/06 09:42:01;;;;;;;;;;;;;;;32.48;45.45;100771.23;107600;1253;97995;-62
2023/07/06 09:44:30;;;;;;;;;;;;;;;32.79;45.16;100767.38;107534;1254;112328;-60
2023/07/06 09:46:59;;;;;;;;;;;;;;;33.09;43.58;100769.22;107649;1254;109639;-60
2023/07/06 09:49:35;;;;;;;;;;;;;;;33.34;42.46;100768.95;107598;1252;108761;-61
2023/07/06 09:52:05;;;;;;;;;;;;;;;33.64;42.85;100764.61;107611;1254;97934;-60
2023/07/06 09:54:39;;;;;;;;;;;;;;;33.97;42.80;100762.52;107633;1252;97827;-61
2023/07/06 09:57:11;;;;;;;;;;;;;;;34.22;41.85;100761.43;107572;1250;111726;-61
2023/07/06 09:59:42;;;;;;;;;;;;;;;34.45;41.52;100761.75;107551;1250;108598;-61
2023/07/06 10:02:29;;;;;;;;;;;;;;;34.66;40.12;100758.02;107498;1251;106559;-66
2023/07/06 10:05:02;;;;;;;;;;;;;;;34.77;38.40;100756.30;107538;1251;98221;-61
2023/07/06 10:07:37;;;;;;;;;;;;;;;35.00;37.98;100750.67;107545;1250;97852;-61
2023/07/06 10:10:20;;;;;;;;;;;;;;;35.32;37.43;100748.65;107526;1251;112190;-61
2023/07/06 10:12:58;;;;;;;;;;;;;;;35.61;36.95;100742.54;107648;1254;108975;-61
2023/07/06 10:15:44;;;;;;;;;;;;;;;35.95;36.22;100739.77;107597;1255;107637;-62
2023/07/06 10:18:13;;;;;;;;;;;;;;;36.15;35.50;100740.86;107586;1254;97806;-63
2023/07/06 10:20:49;;;;;;;;;;;;;;;36.28;36.09;100733.30;107642;1251;97863;-61
2023/07/06 10:23:24;;;;;;;;;;;;;;;36.69;35.06;100737.80;107481;1251;111513;-62
2023/07/06 10:25:56;;;;;;;;;;;;;;;37.23;35.28;100729.61;107558;1251;109235;-62
2023/07/06 10:28:34;;;;;;;;;;;;;;;37.84;34.11;100726.72;107531;1250;107500;-61
2023/07/06 10:31:04;;;;;;;;;;;;;;;38.37;33.11;100723.80;107525;1251;97828;-61
2023/07/06 10:33:43;;;;;;;;;;;;;;;38.86;33.37;100723.84;107509;1251;97813;-62
2023/07/06 10:36:15;;;;;;;;;;;;;;;39.45;32.86;100716.95;107560;1253;110655;-64
2023/07/06 10:38:48;;;;;;;;;;;;;;;39.96;31.51;100713.27;107484;1254;109123;-61
2023/07/06 10:41:21;;;;;;;;;;;;;;;40.30;31.28;100708.09;107463;1257;108258;-61
2023/07/06 10:43:51;;;;;;;;;;;;;;;40.68;30.17;100709.05;107605;1254;97829;-61
2023/07/06 10:46:26;;;;;;;;;;;;;;;40.93;29.78;100705.89;107715;1253;97886;-61
2023/07/06 10:48:56;;;;;;;;;;;;;;;41.14;29.80;100706.59;107582;1251;112083;-62
2023/07/06 10:51:26;;;;;;;;;;;;;;;41.44;29.26;100702.94;107608;1251;109944;-62
2023/07/06 10:54:08;;;;;;;;;;;;;;;41.64;27.34;100700.55;107515;1251;107982;-62
2023/07/06 10:56:40;;;;;;;;;;;;;;;41.48;27.91;100701.48;107647;1254;97847;-62
2023/07/06 10:59:16;;;;;;;;;;;;;;;41.62;28.57;100693.09;107637;1252;97805;-61
2023/07/06 11:01:45;;;;;;;;;;;;;;;41.95;27.37;100685.55;107606;1251;111354;-61
2023/07/06 11:04:32;;;;;;;;;;;;;;;42.34;27.75;100680.36;107447;1254;109543;-61
2023/07/06 11:07:04;;;;;;;;;;;;;;;42.84;25.42;100676.39;107577;1251;109608;-61
2023/07/06 11:09:46;;;;;;;;;;;;;;;42.81;25.49;100672.02;107552;1251;97857;-65
2023/07/06 11:12:18;;;;;;;;;;;;;;;42.89;24.32;100665.00;107524;1251;97829;-63
2023/07/06 11:14:48;;;;;;;;;;;;;;;42.94;25.09;100664.82;107585;1251;111452;-61
2023/07/06 11:17:18;;;;;;;;;;;;;;;43.15;23.91;100659.17;107506;1251;109355;-60
2023/07/06 11:19:53;;;;;;;;;;;;;;;43.17;23.19;100653.56;107651;1251;108578;-61
2023/07/06 11:22:24;;;;;;;;;;;;;;;43.13;24.30;100650.73;107523;1250;97862;-63
2023/07/06 11:24:55;;;;;;;;;;;;;;;43.34;23.17;100641.89;107556;1251;97845;-62
2023/07/06 11:27:29;;;;;;;;;;;;;;;43.36;22.53;100631.45;107593;1254;110738;-62
2023/07/06 11:30:10;;;;;;;;;;;;;;;43.42;22.05;100627.89;107509;1251;109731;-61
2023/07/06 11:32:47;;;;;;;;;;;;;;;43.35;22.75;100626.08;107552;1254;107631;-63
2023/07/06 11:35:28;;;;;;;;;;;;;;;43.47;22.55;100623.80;107560;1250;97940;-63
2023/07/06 11:38:15;;;;;;;;;;;;;;;43.73;21.85;100614.35;107632;1251;97704;-62
2023/07/06 11:40:44;;;;;;;;;;;;;;;44.07;20.74;100605.77;107595;1254;111237;-64
2023/07/06 11:43:15;;;;;;;;;;;;;;;44.22;20.27;100604.18;107664;1251;110479;-62
2023/07/06 11:46:00;;;;;;;;;;;;;;;44.41;20.38;100603.70;107629;1253;108574;-62
2023/07/06 11:48:40;;;;;;;;;;;;;;;44.44;19.15;100599.05;107633;1254;97854;-61
2023/07/06 11:51:09;;;;;;;;;;;;;;;44.49;19.62;100589.42;107679;1254;97905;-61
2023/07/06 11:53:53;;;;;;;;;;;;;;;44.96;20.00;100586.81;107525;1250;111925;-61
2023/07/06 11:56:49;;;;;;;;;;;;;;;45.23;19.23;100587.73;107533;1251;110387;-61
2023/07/06 11:59:40;;;;;;;;;;;;;;;45.78;19.02;100586.19;107526;1251;108569;-61
2023/07/06 12:02:17;;;;;;;;;;;;;;;46.38;18.01;100570.64;107492;1254;97727;-63
2023/07/06 12:04:46;;;;;;;;;;;;;;;46.82;17.65;100565.16;107523;1250;97912;-62
2023/07/06 12:07:20;;;;;;;;;;;;;;;47.12;17.54;100559.11;107561;1251;111683;-62
2023/07/06 12:09:48;;;;;;;;;;;;;;;47.53;17.32;100560.35;107602;1251;110644;-67
2023/07/06 12:12:20;;;;;;;;;;;;;;;47.91;15.89;100559.96;107571;1251;108552;-60
2023/07/06 12:14:52;;;;;;;;;;;;;;;47.53;16.76;100565.09;107488;1254;97820;-60
2023/07/06 12:17:22;;;;;;;;;;;;;;;47.59;17.47;100564.30;107532;1251;97700;-61
2023/07/06 12:19:57;;;;;;;;;;;;;;;47.92;17.28;100557.94;107579;1250;111826;-60
2023/07/06 12:22:25;;;;;;;;;;;;;;;48.32;16.93;100561.73;107611;1250;110098;-61
2023/07/06 12:24:55;;;;;;;;;;;;;;;48.72;17.31;100559.49;107491;1251;108382;-60
2023/07/06 12:27:26;;;;;;;;;;;;;;;49.20;17.24;100560.15;107561;1251;97792;-63
2023/07/06 12:30:06;;;;;;;;;;;;;;;49.43;16.22;100558.52;107596;1254;97717;-61
2023/07/06 12:32:48;;;;;;;;;;;;;;;49.78;16.53;100555.37;107678;1251;112032;-64
2023/07/06 12:35:27;;;;;;;;;;;;;;;50.01;16.16;100547.95;107652;1252;109709;-62
2023/07/06 12:37:56;;;;;;;;;;;;;;;50.28;15.05;100542.86;107567;1251;108022;-62
2023/07/06 12:40:25;;;;;;;;;;;;;;;50.25;15.15;100540.42;107568;1250;97931;-60
2023/07/06 12:42:54;;;;;;;;;;;;;;;50.28;15.19;100545.31;107474;1251;97720;-64
2023/07/06 12:45:23;;;;;;;;;;;;;;;50.19;15.01;100541.04;107578;1251;112358;-62